< < Back
Terminal Aerodrome Forecast


Current Version              Previous Versions:   1  2  3  4  5  6  7  8  9  

Terminal Aerodrome Forecast

618
FTUS42 KGSP 302300
TAFAND
TAF
KAND 302338Z 3100/3124 16003KT P6SM BKN200
     FM310800 00000KT P6SM VCSH BKN250
     FM311200 19003KT P6SM SCT170
     FM312000 23006KT P6SM SCT250 PROB30 3120/3124 4SM TSRA
      BKN040CB=



Latest METAR

569
SAUS70 KWBC 310000 RRE
MTRAND
METAR KAND 302356Z AUTO 33004KT 10SM OVC090 28/22 A3010 RMK AO2 SLP184
60000 T02830217 10328 20283 53003


USA.gov is the U.S. government's official web portal to all federal, state and local government web resources and services.